sensor_id;sensor_type;location;lat;lon;timestamp;pressure;altitude;pressure_sealevel;temperature;humidity
61814;BME280;73144;-35.164;149.098;2024-02-23T00:01:37;93543.84;;;23.83;47.45
61814;BME280;73144;-35.164;149.098;2024-02-23T00:04:07;93535.25;;;23.59;46.83
61814;BME280;73144;-35.164;149.098;2024-02-23T00:06:36;93531.56;;;23.70;46.79
61814;BME280;73144;-35.164;149.098;2024-02-23T00:09:05;93525.10;;;23.60;47.59
61814;BME280;73144;-35.164;149.098;2024-02-23T00:11:34;93507.53;;;23.80;47.14
61814;BME280;73144;-35.164;149.098;2024-02-23T00:14:04;93502.49;;;23.45;47.85
61814;BME280;73144;-35.164;149.098;2024-02-23T00:16:38;93501.39;;;23.58;47.44
61814;BME280;73144;-35.164;149.098;2024-02-23T00:19:08;93492.08;;;23.21;47.37
61814;BME280;73144;-35.164;149.098;2024-02-23T00:21:38;93469.61;;;23.06;48.25
61814;BME280;73144;-35.164;149.098;2024-02-23T00:24:07;93455.65;;;23.17;48.83
61814;BME280;73144;-35.164;149.098;2024-02-23T00:26:36;93447.67;;;23.09;49.64
61814;BME280;73144;-35.164;149.098;2024-02-23T00:29:05;93441.67;;;22.79;50.47
61814;BME280;73144;-35.164;149.098;2024-02-23T00:31:35;93443.03;;;23.44;50.08
61814;BME280;73144;-35.164;149.098;2024-02-23T00:34:06;93448.60;;;23.31;49.85
61814;BME280;73144;-35.164;149.098;2024-02-23T00:36:35;93454.16;;;23.15;48.75
61814;BME280;73144;-35.164;149.098;2024-02-23T00:39:04;93464.68;;;23.49;48.89
61814;BME280;73144;-35.164;149.098;2024-02-23T00:41:34;93484.31;;;23.17;53.35
61814;BME280;73144;-35.164;149.098;2024-02-23T00:44:03;93477.20;;;23.17;56.15
61814;BME280;73144;-35.164;149.098;2024-02-23T00:46:33;93472.99;;;22.87;57.03
61814;BME280;73144;-35.164;149.098;2024-02-23T00:49:02;93464.07;;;22.66;58.79
61814;BME280;73144;-35.164;149.098;2024-02-23T00:51:31;93475.42;;;22.69;59.85
61814;BME280;73144;-35.164;149.098;2024-02-23T00:54:01;93469.86;;;22.52;61.97
61814;BME280;73144;-35.164;149.098;2024-02-23T00:56:30;93448.26;;;22.42;60.71
61814;BME280;73144;-35.164;149.098;2024-02-23T00:58:59;93426.43;;;22.38;61.82
61814;BME280;73144;-35.164;149.098;2024-02-23T01:01:29;93425.45;;;22.41;61.13
61814;BME280;73144;-35.164;149.098;2024-02-23T01:03:58;93431.92;;;22.49;60.87
61814;BME280;73144;-35.164;149.098;2024-02-23T01:06:27;93452.66;;;22.62;61.27
61814;BME280;73144;-35.164;149.098;2024-02-23T01:08:57;93483.95;;;22.51;62.91
61814;BME280;73144;-35.164;149.098;2024-02-23T01:11:26;93496.51;;;22.68;59.18
61814;BME280;73144;-35.164;149.098;2024-02-23T01:13:55;93510.19;;;22.59;61.84
61814;BME280;73144;-35.164;149.098;2024-02-23T01:16:24;93521.23;;;22.56;59.55
61814;BME280;73144;-35.164;149.098;2024-02-23T01:18:54;93525.34;;;22.43;59.58
61814;BME280;73144;-35.164;149.098;2024-02-23T01:21:23;93528.61;;;22.31;58.57
61814;BME280;73144;-35.164;149.098;2024-02-23T01:23:52;93510.79;;;22.17;60.37
61814;BME280;73144;-35.164;149.098;2024-02-23T01:26:22;93473.54;;;22.11;61.11
61814;BME280;73144;-35.164;149.098;2024-02-23T01:28:51;93475.46;;;22.04;62.81
61814;BME280;73144;-35.164;149.098;2024-02-23T01:31:20;93503.66;;;21.92;63.52
61814;BME280;73144;-35.164;149.098;2024-02-23T01:33:49;93480.77;;;21.81;61.99
61814;BME280;73144;-35.164;149.098;2024-02-23T01:36:18;93490.25;;;21.90;61.37
61814;BME280;73144;-35.164;149.098;2024-02-23T01:38:47;93513.59;;;21.51;63.84
61814;BME280;73144;-35.164;149.098;2024-02-23T01:41:17;93538.28;;;21.33;61.87
61814;BME280;73144;-35.164;149.098;2024-02-23T01:43:46;93502.16;;;21.70;63.66
61814;BME280;73144;-35.164;149.098;2024-02-23T01:46:15;93468.09;;;21.65;62.09
61814;BME280;73144;-35.164;149.098;2024-02-23T01:48:45;93461.82;;;21.60;63.56
61814;BME280;73144;-35.164;149.098;2024-02-23T01:51:14;93445.12;;;21.57;63.38
61814;BME280;73144;-35.164;149.098;2024-02-23T01:53:43;93440.32;;;21.45;62.56
61814;BME280;73144;-35.164;149.098;2024-02-23T01:56:13;93447.16;;;21.31;62.54
61814;BME280;73144;-35.164;149.098;2024-02-23T01:58:43;93445.87;;;21.31;64.54
61814;BME280;73144;-35.164;149.098;2024-02-23T02:01:12;93441.60;;;21.23;64.73
61814;BME280;73144;-35.164;149.098;2024-02-23T02:03:41;93432.86;;;21.23;64.56
61814;BME280;73144;-35.164;149.098;2024-02-23T02:06:12;93444.62;;;21.21;65.47
61814;BME280;73144;-35.164;149.098;2024-02-23T02:08:42;93443.11;;;21.15;64.52
61814;BME280;73144;-35.164;149.098;2024-02-23T02:11:11;93434.63;;;21.13;64.78
61814;BME280;73144;-35.164;149.098;2024-02-23T02:13:39;93420.10;;;21.03;64.56
61814;BME280;73144;-35.164;149.098;2024-02-23T02:16:08;93421.08;;;21.00;64.90
61814;BME280;73144;-35.164;149.098;2024-02-23T02:18:37;93408.51;;;20.94;66.60
61814;BME280;73144;-35.164;149.098;2024-02-23T02:21:07;93408.85;;;21.04;66.56
61814;BME280;73144;-35.164;149.098;2024-02-23T02:23:36;93400.15;;;20.77;67.75
61814;BME280;73144;-35.164;149.098;2024-02-23T02:26:05;93381.82;;;20.93;68.28
61814;BME280;73144;-35.164;149.098;2024-02-23T02:28:34;93390.65;;;20.74;68.86
61814;BME280;73144;-35.164;149.098;2024-02-23T02:31:04;93402.54;;;20.71;68.77
61814;BME280;73144;-35.164;149.098;2024-02-23T02:33:33;93403.11;;;20.64;68.39
61814;BME280;73144;-35.164;149.098;2024-02-23T02:36:03;93404.48;;;20.86;69.11
61814;BME280;73144;-35.164;149.098;2024-02-23T02:38:32;93403.95;;;20.66;69.59
61814;BME280;73144;-35.164;149.098;2024-02-23T02:41:01;93398.94;;;20.86;68.59
61814;BME280;73144;-35.164;149.098;2024-02-23T02:43:30;93401.95;;;20.84;67.39
61814;BME280;73144;-35.164;149.098;2024-02-23T02:46:00;93406.31;;;20.73;67.50
61814;BME280;73144;-35.164;149.098;2024-02-23T02:48:29;93409.91;;;21.02;69.08
61814;BME280;73144;-35.164;149.098;2024-02-23T02:50:58;93407.04;;;20.86;65.94
61814;BME280;73144;-35.164;149.098;2024-02-23T02:53:28;93401.40;;;20.89;66.34
61814;BME280;73144;-35.164;149.098;2024-02-23T02:55:57;93394.88;;;20.94;66.56
61814;BME280;73144;-35.164;149.098;2024-02-23T02:58:26;93386.81;;;21.09;66.37
61814;BME280;73144;-35.164;149.098;2024-02-23T03:00:56;93383.75;;;21.19;66.64
61814;BME280;73144;-35.164;149.098;2024-02-23T03:03:25;93380.19;;;21.45;65.83
61814;BME280;73144;-35.164;149.098;2024-02-23T03:05:53;93380.79;;;21.56;66.48
61814;BME280;73144;-35.164;149.098;2024-02-23T03:08:23;93378.13;;;22.11;64.65
61814;BME280;73144;-35.164;149.098;2024-02-23T03:10:52;93379.62;;;21.98;66.07
61814;BME280;73144;-35.164;149.098;2024-02-23T03:13:21;93372.86;;;22.01;64.79
61814;BME280;73144;-35.164;149.098;2024-02-23T03:15:51;93370.89;;;21.81;63.70
61814;BME280;73144;-35.164;149.098;2024-02-23T03:18:20;93368.70;;;21.87;63.37
61814;BME280;73144;-35.164;149.098;2024-02-23T03:20:49;93365.31;;;21.96;62.45
61814;BME280;73144;-35.164;149.098;2024-02-23T03:23:18;93358.02;;;21.95;63.17
61814;BME280;73144;-35.164;149.098;2024-02-23T03:25:48;93363.98;;;22.17;63.57
61814;BME280;73144;-35.164;149.098;2024-02-23T03:28:17;93356.70;;;22.04;62.79
61814;BME280;73144;-35.164;149.098;2024-02-23T03:30:46;93355.22;;;22.59;62.73
61814;BME280;73144;-35.164;149.098;2024-02-23T03:33:16;93353.41;;;22.71;62.47
61814;BME280;73144;-35.164;149.098;2024-02-23T03:35:45;93347.91;;;22.83;63.69
61814;BME280;73144;-35.164;149.098;2024-02-23T03:38:14;93345.75;;;22.52;62.94
61814;BME280;73144;-35.164;149.098;2024-02-23T03:40:44;93345.15;;;23.00;62.27
61814;BME280;73144;-35.164;149.098;2024-02-23T03:43:13;93346.22;;;23.19;61.00
61814;BME280;73144;-35.164;149.098;2024-02-23T03:45:42;93345.45;;;23.39;60.59
61814;BME280;73144;-35.164;149.098;2024-02-23T03:48:11;93340.67;;;23.28;60.78
61814;BME280;73144;-35.164;149.098;2024-02-23T03:50:41;93336.27;;;23.42;59.38
61814;BME280;73144;-35.164;149.098;2024-02-23T03:53:10;93334.43;;;23.60;57.63
61814;BME280;73144;-35.164;149.098;2024-02-23T03:55:39;93338.02;;;23.71;58.20
61814;BME280;73144;-35.164;149.098;2024-02-23T03:58:09;93332.40;;;23.79;57.84
61814;BME280;73144;-35.164;149.098;2024-02-23T04:00:38;93331.11;;;23.57;56.96
61814;BME280;73144;-35.164;149.098;2024-02-23T04:03:07;93324.40;;;23.46;57.00
61814;BME280;73144;-35.164;149.098;2024-02-23T04:05:36;93315.39;;;24.21;54.16
61814;BME280;73144;-35.164;149.098;2024-02-23T04:08:06;93315.55;;;24.03;55.37
61814;BME280;73144;-35.164;149.098;2024-02-23T04:10:35;93329.39;;;24.17;52.42
61814;BME280;73144;-35.164;149.098;2024-02-23T04:13:05;93321.29;;;23.76;54.30
61814;BME280;73144;-35.164;149.098;2024-02-23T04:15:33;93320.19;;;23.90;54.50
61814;BME280;73144;-35.164;149.098;2024-02-23T04:18:03;93307.51;;;23.94;54.07
61814;BME280;73144;-35.164;149.098;2024-02-23T04:20:32;93302.83;;;24.05;52.12
61814;BME280;73144;-35.164;149.098;2024-02-23T04:23:01;93298.89;;;24.19;50.50
61814;BME280;73144;-35.164;149.098;2024-02-23T04:25:30;93302.85;;;23.91;49.95
61814;BME280;73144;-35.164;149.098;2024-02-23T04:28:00;93297.36;;;24.41;49.03
61814;BME280;73144;-35.164;149.098;2024-02-23T04:30:29;93302.80;;;24.12;48.32
61814;BME280;73144;-35.164;149.098;2024-02-23T04:32:58;93307.89;;;24.34;48.58
61814;BME280;73144;-35.164;149.098;2024-02-23T04:35:27;93304.59;;;24.26;46.43
61814;BME280;73144;-35.164;149.098;2024-02-23T04:37:56;93296.76;;;24.42;47.41
61814;BME280;73144;-35.164;149.098;2024-02-23T04:40:26;93298.74;;;24.67;47.77
61814;BME280;73144;-35.164;149.098;2024-02-23T04:42:55;93306.71;;;24.53;46.72
61814;BME280;73144;-35.164;149.098;2024-02-23T04:45:24;93294.47;;;24.55;46.68
61814;BME280;73144;-35.164;149.098;2024-02-23T04:47:53;93290.57;;;24.79;47.92
61814;BME280;73144;-35.164;149.098;2024-02-23T04:50:23;93295.01;;;24.59;48.57
61814;BME280;73144;-35.164;149.098;2024-02-23T04:52:52;93288.88;;;24.52;46.92
61814;BME280;73144;-35.164;149.098;2024-02-23T04:55:21;93288.82;;;24.48;46.77
61814;BME280;73144;-35.164;149.098;2024-02-23T04:57:50;93279.87;;;24.87;47.20
61814;BME280;73144;-35.164;149.098;2024-02-23T05:00:20;93281.11;;;24.38;47.00
61814;BME280;73144;-35.164;149.098;2024-02-23T05:02:49;93278.98;;;24.41;46.80
61814;BME280;73144;-35.164;149.098;2024-02-23T05:05:18;93277.39;;;24.40;45.96
61814;BME280;73144;-35.164;149.098;2024-02-23T05:07:47;93274.87;;;24.56;46.70
61814;BME280;73144;-35.164;149.098;2024-02-23T05:10:17;93272.12;;;24.63;45.44
61814;BME280;73144;-35.164;149.098;2024-02-23T05:12:47;93274.28;;;24.71;43.51
61814;BME280;73144;-35.164;149.098;2024-02-23T05:15:15;93269.06;;;24.79;42.99
61814;BME280;73144;-35.164;149.098;2024-02-23T05:17:45;93273.13;;;24.83;43.39
61814;BME280;73144;-35.164;149.098;2024-02-23T05:20:15;93273.68;;;24.86;41.69
61814;BME280;73144;-35.164;149.098;2024-02-23T05:22:44;93278.49;;;24.86;42.54
61814;BME280;73144;-35.164;149.098;2024-02-23T05:25:13;93273.76;;;24.86;42.46
61814;BME280;73144;-35.164;149.098;2024-02-23T05:27:42;93271.21;;;24.83;42.94
61814;BME280;73144;-35.164;149.098;2024-02-23T05:30:13;93274.81;;;25.01;43.55
61814;BME280;73144;-35.164;149.098;2024-02-23T05:32:42;93277.54;;;25.01;40.26
61814;BME280;73144;-35.164;149.098;2024-02-23T05:35:11;93265.83;;;24.67;43.17
61814;BME280;73144;-35.164;149.098;2024-02-23T05:37:42;93271.14;;;24.80;39.36
61814;BME280;73144;-35.164;149.098;2024-02-23T05:40:11;93273.10;;;24.59;40.56
61814;BME280;73144;-35.164;149.098;2024-02-23T05:42:40;93272.49;;;24.83;41.15
61814;BME280;73144;-35.164;149.098;2024-02-23T05:45:09;93270.66;;;24.79;40.13
61814;BME280;73144;-35.164;149.098;2024-02-23T05:47:38;93271.30;;;24.73;40.96
61814;BME280;73144;-35.164;149.098;2024-02-23T05:50:08;93268.15;;;24.72;39.11
61814;BME280;73144;-35.164;149.098;2024-02-23T05:52:38;93272.65;;;24.64;40.33
61814;BME280;73144;-35.164;149.098;2024-02-23T05:55:07;93274.21;;;24.69;42.14
61814;BME280;73144;-35.164;149.098;2024-02-23T05:57:36;93276.63;;;24.63;39.79
61814;BME280;73144;-35.164;149.098;2024-02-23T06:00:06;93278.47;;;24.53;40.22
61814;BME280;73144;-35.164;149.098;2024-02-23T06:02:35;93275.49;;;24.42;40.82
61814;BME280;73144;-35.164;149.098;2024-02-23T06:05:06;93282.40;;;24.24;42.78
61814;BME280;73144;-35.164;149.098;2024-02-23T06:07:35;93282.11;;;24.63;39.68
61814;BME280;73144;-35.164;149.098;2024-02-23T06:10:04;93287.95;;;24.41;40.05
61814;BME280;73144;-35.164;149.098;2024-02-23T06:12:33;93288.60;;;24.52;40.24
61814;BME280;73144;-35.164;149.098;2024-02-23T06:15:03;93290.27;;;24.69;44.01
61814;BME280;73144;-35.164;149.098;2024-02-23T06:17:32;93289.96;;;24.45;40.72
61814;BME280;73144;-35.164;149.098;2024-02-23T06:20:01;93287.33;;;24.45;41.74
61814;BME280;73144;-35.164;149.098;2024-02-23T06:22:30;93288.66;;;24.54;43.14
61814;BME280;73144;-35.164;149.098;2024-02-23T06:24:59;93284.68;;;24.37;42.91
61814;BME280;73144;-35.164;149.098;2024-02-23T06:27:28;93286.28;;;24.66;41.47
61814;BME280;73144;-35.164;149.098;2024-02-23T06:29:57;93282.76;;;24.48;42.38
61814;BME280;73144;-35.164;149.098;2024-02-23T06:32:26;93283.62;;;24.51;41.15
61814;BME280;73144;-35.164;149.098;2024-02-23T06:34:55;93287.73;;;24.64;38.13
61814;BME280;73144;-35.164;149.098;2024-02-23T06:37:24;93281.93;;;24.46;39.18
61814;BME280;73144;-35.164;149.098;2024-02-23T06:39:53;93276.12;;;24.60;41.21
61814;BME280;73144;-35.164;149.098;2024-02-23T06:42:23;93278.92;;;24.38;39.06
61814;BME280;73144;-35.164;149.098;2024-02-23T06:44:52;93275.77;;;24.32;38.88
61814;BME280;73144;-35.164;149.098;2024-02-23T06:47:21;93277.83;;;24.57;39.83
61814;BME280;73144;-35.164;149.098;2024-02-23T06:49:50;93283.16;;;24.78;40.08
61814;BME280;73144;-35.164;149.098;2024-02-23T06:52:19;93289.62;;;24.49;39.76
61814;BME280;73144;-35.164;149.098;2024-02-23T06:54:49;93300.15;;;24.62;39.58
61814;BME280;73144;-35.164;149.098;2024-02-23T06:57:18;93300.91;;;24.71;37.12
61814;BME280;73144;-35.164;149.098;2024-02-23T06:59:47;93305.48;;;24.59;38.68
61814;BME280;73144;-35.164;149.098;2024-02-23T07:02:16;93315.43;;;24.73;36.68
61814;BME280;73144;-35.164;149.098;2024-02-23T07:04:44;93319.79;;;24.62;32.73
61814;BME280;73144;-35.164;149.098;2024-02-23T07:07:13;93326.92;;;24.81;34.02
61814;BME280;73144;-35.164;149.098;2024-02-23T07:09:42;93324.68;;;24.85;34.40
61814;BME280;73144;-35.164;149.098;2024-02-23T07:12:11;93333.75;;;24.29;37.28
61814;BME280;73144;-35.164;149.098;2024-02-23T07:14:40;93338.66;;;24.29;35.64
61814;BME280;73144;-35.164;149.098;2024-02-23T07:17:10;93334.55;;;24.14;35.10
61814;BME280;73144;-35.164;149.098;2024-02-23T07:19:38;93340.94;;;24.07;35.15
61814;BME280;73144;-35.164;149.098;2024-02-23T07:22:07;93346.93;;;24.09;34.95
61814;BME280;73144;-35.164;149.098;2024-02-23T07:24:40;93351.20;;;23.82;34.24
61814;BME280;73144;-35.164;149.098;2024-02-23T07:27:09;93350.38;;;24.07;34.57
61814;BME280;73144;-35.164;149.098;2024-02-23T07:29:38;93357.06;;;23.96;33.52
61814;BME280;73144;-35.164;149.098;2024-02-23T07:32:07;93359.32;;;23.84;36.43
61814;BME280;73144;-35.164;149.098;2024-02-23T07:34:37;93359.76;;;23.79;35.28
61814;BME280;73144;-35.164;149.098;2024-02-23T07:37:06;93367.18;;;23.76;33.72
61814;BME280;73144;-35.164;149.098;2024-02-23T07:39:34;93371.57;;;23.71;37.87
61814;BME280;73144;-35.164;149.098;2024-02-23T07:42:03;93373.98;;;23.71;38.52
61814;BME280;73144;-35.164;149.098;2024-02-23T07:44:32;93380.50;;;23.68;37.55
61814;BME280;73144;-35.164;149.098;2024-02-23T07:47:02;93385.26;;;23.76;35.46
61814;BME280;73144;-35.164;149.098;2024-02-23T07:49:31;93389.04;;;23.57;40.28
61814;BME280;73144;-35.164;149.098;2024-02-23T07:52:00;93397.15;;;23.78;36.24
61814;BME280;73144;-35.164;149.098;2024-02-23T07:54:29;93398.66;;;23.64;39.19
61814;BME280;73144;-35.164;149.098;2024-02-23T07:56:57;93405.42;;;24.03;36.41
61814;BME280;73144;-35.164;149.098;2024-02-23T07:59:26;93405.63;;;24.05;36.45
61814;BME280;73144;-35.164;149.098;2024-02-23T08:01:55;93405.87;;;23.77;34.51
61814;BME280;73144;-35.164;149.098;2024-02-23T08:04:24;93404.61;;;23.90;38.16
61814;BME280;73144;-35.164;149.098;2024-02-23T08:06:54;93412.45;;;24.18;35.39
61814;BME280;73144;-35.164;149.098;2024-02-23T08:09:23;93416.99;;;24.05;38.27
61814;BME280;73144;-35.164;149.098;2024-02-23T08:11:52;93418.57;;;23.89;37.60
61814;BME280;73144;-35.164;149.098;2024-02-23T08:14:22;93423.33;;;23.67;36.23
61814;BME280;73144;-35.164;149.098;2024-02-23T08:16:51;93424.56;;;23.25;36.88
61814;BME280;73144;-35.164;149.098;2024-02-23T08:19:20;93434.24;;;23.44;40.24
61814;BME280;73144;-35.164;149.098;2024-02-23T08:21:49;93439.81;;;23.02;36.65
61814;BME280;73144;-35.164;149.098;2024-02-23T08:24:17;93441.83;;;23.00;40.19
61814;BME280;73144;-35.164;149.098;2024-02-23T08:26:46;93443.62;;;22.85;40.23
61814;BME280;73144;-35.164;149.098;2024-02-23T08:29:15;93444.87;;;22.78;40.55
61814;BME280;73144;-35.164;149.098;2024-02-23T08:31:44;93446.13;;;22.58;35.21
61814;BME280;73144;-35.164;149.098;2024-02-23T08:34:12;93453.10;;;22.47;41.29
61814;BME280;73144;-35.164;149.098;2024-02-23T08:36:41;93455.04;;;22.35;40.60
61814;BME280;73144;-35.164;149.098;2024-02-23T08:39:10;93462.29;;;22.11;38.40
61814;BME280;73144;-35.164;149.098;2024-02-23T08:41:39;93471.64;;;22.00;37.72
61814;BME280;73144;-35.164;149.098;2024-02-23T08:44:11;93478.32;;;21.93;41.69
61814;BME280;73144;-35.164;149.098;2024-02-23T08:46:40;93485.40;;;21.82;41.65
61814;BME280;73144;-35.164;149.098;2024-02-23T08:49:25;93488.78;;;21.70;41.24
61814;BME280;73144;-35.164;149.098;2024-02-23T08:51:55;93490.79;;;21.66;37.51
61814;BME280;73144;-35.164;149.098;2024-02-23T08:54:24;93493.94;;;21.70;38.95
61814;BME280;73144;-35.164;149.098;2024-02-23T08:56:53;93501.80;;;21.62;37.30
61814;BME280;73144;-35.164;149.098;2024-02-23T08:59:22;93502.91;;;21.35;32.67
61814;BME280;73144;-35.164;149.098;2024-02-23T09:01:51;93513.75;;;21.13;33.26
61814;BME280;73144;-35.164;149.098;2024-02-23T09:04:20;93514.15;;;21.41;33.51
61814;BME280;73144;-35.164;149.098;2024-02-23T09:06:49;93518.68;;;21.39;32.29
61814;BME280;73144;-35.164;149.098;2024-02-23T09:09:18;93521.74;;;21.35;30.32
61814;BME280;73144;-35.164;149.098;2024-02-23T09:11:48;93529.73;;;21.56;33.44
61814;BME280;73144;-35.164;149.098;2024-02-23T09:14:17;93539.64;;;21.34;32.03
61814;BME280;73144;-35.164;149.098;2024-02-23T09:16:46;93544.24;;;21.21;32.52
61814;BME280;73144;-35.164;149.098;2024-02-23T09:19:14;93548.46;;;21.43;31.48
61814;BME280;73144;-35.164;149.098;2024-02-23T09:21:43;93547.79;;;20.92;31.99
61814;BME280;73144;-35.164;149.098;2024-02-23T09:24:13;93556.93;;;21.14;31.84
61814;BME280;73144;-35.164;149.098;2024-02-23T09:26:42;93564.63;;;21.23;30.62
61814;BME280;73144;-35.164;149.098;2024-02-23T09:29:11;93574.17;;;20.97;30.50
61814;BME280;73144;-35.164;149.098;2024-02-23T09:31:40;93574.93;;;21.21;29.69
61814;BME280;73144;-35.164;149.098;2024-02-23T09:34:09;93573.80;;;21.11;29.62
61814;BME280;73144;-35.164;149.098;2024-02-23T09:36:38;93574.71;;;21.00;28.05
61814;BME280;73144;-35.164;149.098;2024-02-23T09:39:07;93578.17;;;20.99;28.66
61814;BME280;73144;-35.164;149.098;2024-02-23T09:41:36;93580.50;;;21.14;28.63
61814;BME280;73144;-35.164;149.098;2024-02-23T09:44:07;93583.19;;;20.86;27.67
61814;BME280;73144;-35.164;149.098;2024-02-23T09:46:37;93583.13;;;20.81;27.43
61814;BME280;73144;-35.164;149.098;2024-02-23T09:49:08;93589.21;;;21.02;28.50
61814;BME280;73144;-35.164;149.098;2024-02-23T09:51:40;93594.45;;;20.69;28.65
61814;BME280;73144;-35.164;149.098;2024-02-23T09:54:09;93596.77;;;20.59;26.47
61814;BME280;73144;-35.164;149.098;2024-02-23T09:56:39;93608.13;;;20.57;27.64
61814;BME280;73144;-35.164;149.098;2024-02-23T09:59:08;93616.15;;;20.56;26.91
61814;BME280;73144;-35.164;149.098;2024-02-23T10:01:36;93624.01;;;20.48;26.72
61814;BME280;73144;-35.164;149.098;2024-02-23T10:04:06;93629.77;;;20.46;26.89
61814;BME280;73144;-35.164;149.098;2024-02-23T10:06:35;93635.07;;;20.51;27.08
61814;BME280;73144;-35.164;149.098;2024-02-23T10:09:04;93636.14;;;20.50;26.89
61814;BME280;73144;-35.164;149.098;2024-02-23T10:11:34;93636.22;;;20.22;27.11
61814;BME280;73144;-35.164;149.098;2024-02-23T10:14:02;93640.26;;;20.15;27.00
61814;BME280;73144;-35.164;149.098;2024-02-23T10:16:31;93646.77;;;20.40;26.85
61814;BME280;73144;-35.164;149.098;2024-02-23T10:19:00;93657.74;;;20.17;27.30
61814;BME280;73144;-35.164;149.098;2024-02-23T10:21:29;93657.12;;;20.07;27.70
61814;BME280;73144;-35.164;149.098;2024-02-23T10:23:59;93660.00;;;20.07;28.34
61814;BME280;73144;-35.164;149.098;2024-02-23T10:26:28;93663.68;;;19.77;27.56
61814;BME280;73144;-35.164;149.098;2024-02-23T10:28:57;93667.34;;;20.08;28.33
61814;BME280;73144;-35.164;149.098;2024-02-23T10:31:26;93675.89;;;20.15;28.68
61814;BME280;73144;-35.164;149.098;2024-02-23T10:33:58;93683.20;;;19.80;28.59
61814;BME280;73144;-35.164;149.098;2024-02-23T10:36:29;93685.33;;;20.00;29.85
61814;BME280;73144;-35.164;149.098;2024-02-23T10:39:02;93686.38;;;19.72;28.92
61814;BME280;73144;-35.164;149.098;2024-02-23T10:41:34;93690.64;;;19.72;30.42
61814;BME280;73144;-35.164;149.098;2024-02-23T10:44:04;93699.43;;;19.82;30.74
61814;BME280;73144;-35.164;149.098;2024-02-23T10:46:34;93703.92;;;19.71;31.76
61814;BME280;73144;-35.164;149.098;2024-02-23T10:49:04;93700.60;;;19.59;31.70
61814;BME280;73144;-35.164;149.098;2024-02-23T10:51:33;93699.00;;;19.53;31.29
61814;BME280;73144;-35.164;149.098;2024-02-23T10:54:03;93702.54;;;19.19;31.51
61814;BME280;73144;-35.164;149.098;2024-02-23T10:56:32;93711.80;;;19.40;31.68
61814;BME280;73144;-35.164;149.098;2024-02-23T10:59:01;93719.58;;;19.28;32.17
61814;BME280;73144;-35.164;149.098;2024-02-23T11:01:30;93728.20;;;19.20;32.62
61814;BME280;73144;-35.164;149.098;2024-02-23T11:04:01;93740.50;;;19.08;33.66
61814;BME280;73144;-35.164;149.098;2024-02-23T11:06:34;93748.84;;;18.95;34.18
61814;BME280;73144;-35.164;149.098;2024-02-23T11:09:07;93762.89;;;18.83;34.06
61814;BME280;73144;-35.164;149.098;2024-02-23T11:11:37;93779.43;;;19.21;33.92
61814;BME280;73144;-35.164;149.098;2024-02-23T11:14:09;93779.65;;;18.85;32.56
61814;BME280;73144;-35.164;149.098;2024-02-23T11:16:40;93785.75;;;19.07;34.23
61814;BME280;73144;-35.164;149.098;2024-02-23T11:19:10;93787.49;;;19.31;34.75
61814;BME280;73144;-35.164;149.098;2024-02-23T11:21:39;93786.07;;;19.08;34.90
61814;BME280;73144;-35.164;149.098;2024-02-23T11:24:09;93785.50;;;19.30;35.19
61814;BME280;73144;-35.164;149.098;2024-02-23T11:26:43;93792.87;;;18.79;35.33
61814;BME280;73144;-35.164;149.098;2024-02-23T11:29:13;93794.64;;;19.23;36.41
61814;BME280;73144;-35.164;149.098;2024-02-23T11:31:46;93799.53;;;18.99;37.05
61814;BME280;73144;-35.164;149.098;2024-02-23T11:34:22;93799.43;;;18.93;38.19
61814;BME280;73144;-35.164;149.098;2024-02-23T11:36:53;93797.87;;;18.88;39.14
61814;BME280;73144;-35.164;149.098;2024-02-23T11:39:23;93802.28;;;18.60;42.21
61814;BME280;73144;-35.164;149.098;2024-02-23T11:41:52;93806.86;;;18.75;44.40
61814;BME280;73144;-35.164;149.098;2024-02-23T11:44:21;93812.17;;;18.71;46.48
61814;BME280;73144;-35.164;149.098;2024-02-23T11:46:51;93811.80;;;18.70;45.01
61814;BME280;73144;-35.164;149.098;2024-02-23T11:49:20;93808.99;;;18.64;46.88
61814;BME280;73144;-35.164;149.098;2024-02-23T11:51:49;93806.95;;;18.40;48.44
61814;BME280;73144;-35.164;149.098;2024-02-23T11:54:19;93806.90;;;18.58;48.96
61814;BME280;73144;-35.164;149.098;2024-02-23T11:56:48;93799.92;;;18.51;49.00
61814;BME280;73144;-35.164;149.098;2024-02-23T11:59:17;93799.45;;;18.67;49.35
61814;BME280;73144;-35.164;149.098;2024-02-23T12:01:47;93805.62;;;18.20;50.87
61814;BME280;73144;-35.164;149.098;2024-02-23T12:04:16;93806.08;;;18.54;51.47
61814;BME280;73144;-35.164;149.098;2024-02-23T12:06:45;93806.67;;;18.47;52.16
61814;BME280;73144;-35.164;149.098;2024-02-23T12:09:15;93815.88;;;18.48;52.62
61814;BME280;73144;-35.164;149.098;2024-02-23T12:11:44;93823.80;;;18.41;53.00
61814;BME280;73144;-35.164;149.098;2024-02-23T12:14:14;93826.70;;;18.39;53.77
61814;BME280;73144;-35.164;149.098;2024-02-23T12:16:43;93833.32;;;18.57;54.13
61814;BME280;73144;-35.164;149.098;2024-02-23T12:19:14;93835.61;;;18.27;54.92
61814;BME280;73144;-35.164;149.098;2024-02-23T12:21:46;93841.33;;;18.16;55.96
61814;BME280;73144;-35.164;149.098;2024-02-23T12:24:15;93850.42;;;18.15;56.41
61814;BME280;73144;-35.164;149.098;2024-02-23T12:26:44;93857.74;;;18.10;57.02
61814;BME280;73144;-35.164;149.098;2024-02-23T12:29:13;93865.64;;;18.05;57.33
61814;BME280;73144;-35.164;149.098;2024-02-23T12:31:42;93868.62;;;18.04;58.07
61814;BME280;73144;-35.164;149.098;2024-02-23T12:34:13;93871.37;;;18.01;58.17
61814;BME280;73144;-35.164;149.098;2024-02-23T12:36:42;93876.35;;;18.23;58.42
61814;BME280;73144;-35.164;149.098;2024-02-23T12:39:11;93878.40;;;17.97;58.37
61814;BME280;73144;-35.164;149.098;2024-02-23T12:41:41;93881.39;;;18.19;58.83